Time;durP1;ratioP1;P1;durP2;ratioP2;P2;SDS_P1;SDS_P2;PMS_P1;PMS_P2;Temp;Humidity;BMP_temperature;BMP_pressure;BME280_temperature;BME280_humidity;BME280_pressure;Samples;Min_cycle;Max_cycle;Signal;HPM_P1;HPM_P2
2021/03/25 00:01:22;;;;;;;16.63;11.53;;;4.10;52.10;;;;;;5069903;28;38080;-77
2021/03/25 00:03:51;;;;;;;21.03;12.30;;;4.00;52.10;;;;;;5062119;28;38427;-77
2021/03/25 00:06:19;;;;;;;19.10;12.20;;;4.00;52.30;;;;;;5086845;28;39420;-77
2021/03/25 00:08:46;;;;;;;19.23;11.60;;;3.90;52.50;;;;;;5082695;28;38074;-77
2021/03/25 00:11:14;;;;;;;14.73;10.10;;;3.90;52.50;;;;;;5066602;28;35957;-77
2021/03/25 00:13:41;;;;;;;21.23;11.37;;;3.80;52.30;;;;;;5094284;28;39810;-77
2021/03/25 00:16:09;;;;;;;18.93;12.13;;;3.80;52.40;;;;;;5045334;28;37772;-77
2021/03/25 00:18:36;;;;;;;17.63;11.60;;;3.80;52.20;;;;;;5081556;28;36993;-77
2021/03/25 00:21:04;;;;;;;20.47;11.87;;;3.70;52.40;;;;;;5100368;28;38537;-79
2021/03/25 00:23:34;;;;;;;18.20;11.53;;;3.70;52.60;;;;;;5094684;28;39293;-78
2021/03/25 00:26:01;;;;;;;18.80;10.67;;;3.70;52.60;;;;;;5067107;28;39404;-78
2021/03/25 00:28:29;;;;;;;17.10;11.37;;;3.70;52.80;;;;;;5092307;28;38401;-77
2021/03/25 00:30:57;;;;;;;17.20;11.00;;;3.60;52.70;;;;;;5043401;28;36238;-77
2021/03/25 00:33:24;;;;;;;16.67;10.90;;;3.60;53.00;;;;;;5112587;28;38690;-77
2021/03/25 00:35:52;;;;;;;18.67;11.13;;;3.50;53.10;;;;;;5091078;28;39343;-78
2021/03/25 00:38:19;;;;;;;18.23;11.10;;;3.50;53.10;;;;;;5106303;28;38379;-77
2021/03/25 00:40:50;;;;;;;17.97;10.80;;;3.50;53.10;;;;;;5099529;28;38483;-77
2021/03/25 00:43:20;;;;;;;19.60;11.70;;;3.50;53.10;;;;;;5102063;28;39721;-78
2021/03/25 00:45:50;;;;;;;17.53;11.70;;;3.40;53.00;;;;;;5092027;28;39185;-78
2021/03/25 00:48:19;;;;;;;16.57;10.97;;;3.40;53.00;;;;;;5081853;28;37129;-77
2021/03/25 00:50:49;;;;;;;17.07;11.40;;;3.40;53.10;;;;;;5075496;28;38873;-78
2021/03/25 00:53:19;;;;;;;17.57;10.83;;;3.40;53.20;;;;;;5110104;28;38298;-78
2021/03/25 00:55:47;;;;;;;17.87;11.17;;;3.30;53.30;;;;;;5076838;28;37768;-78
2021/03/25 00:58:14;;;;;;;18.70;11.67;;;3.30;53.60;;;;;;5077864;28;38165;-76
2021/03/25 01:00:43;;;;;;;16.07;10.43;;;3.30;53.80;;;;;;5095763;28;38088;-76
2021/03/25 01:03:18;;;;;;;14.87;10.17;;;3.30;53.70;;;;;;5079715;28;38280;-76
2021/03/25 01:05:45;;;;;;;19.03;10.37;;;3.30;53.10;;;;;;5076199;28;38730;-75
2021/03/25 01:08:13;;;;;;;14.80;10.60;;;3.30;53.00;;;;;;5085222;28;37123;-75
2021/03/25 01:10:44;;;;;;;13.43;9.70;;;3.20;53.10;;;;;;5097720;28;38024;-75
2021/03/25 01:13:15;;;;;;;13.83;10.00;;;3.20;53.20;;;;;;5074882;28;39813;-75
2021/03/25 01:15:42;;;;;;;14.20;10.50;;;3.20;52.90;;;;;;5091566;28;39556;-75
2021/03/25 01:18:09;;;;;;;14.87;10.37;;;3.20;52.90;;;;;;5087546;28;37485;-75
2021/03/25 01:20:41;;;;;;;17.23;10.83;;;3.20;52.90;;;;;;5075644;28;36906;-76
2021/03/25 01:23:09;;;;;;;19.03;11.67;;;3.10;52.80;;;;;;5083784;28;40020;-76
2021/03/25 01:25:39;;;;;;;16.00;10.63;;;3.10;52.80;;;;;;5066623;28;37976;-75
2021/03/25 01:28:09;;;;;;;18.60;12.07;;;3.10;52.80;;;;;;5083766;28;38850;-75
2021/03/25 01:30:38;;;;;;;16.37;10.97;;;3.20;52.90;;;;;;5078218;28;36056;-76
2021/03/25 01:33:07;;;;;;;15.03;11.73;;;3.10;52.80;;;;;;5071499;28;40221;-76
2021/03/25 01:35:38;;;;;;;18.10;11.43;;;3.10;53.10;;;;;;5070724;28;37940;-76
2021/03/25 01:38:10;;;;;;;18.00;11.10;;;3.00;53.10;;;;;;5073648;28;39780;-76
2021/03/25 01:40:40;;;;;;;16.67;11.73;;;3.00;53.50;;;;;;5076683;28;36244;-76
2021/03/25 01:43:20;;;;;;;20.57;12.13;;;3.00;54.10;;;;;;5078653;28;38717;-76
2021/03/25 01:46:08;;;;;;;15.10;10.23;;;3.00;53.60;;;;;;5081446;28;39835;-76
2021/03/25 01:48:37;;;;;;;15.70;10.87;;;2.90;53.50;;;;;;5073300;28;38948;-76
2021/03/25 01:51:13;;;;;;;16.43;10.90;;;2.90;53.60;;;;;;5072104;28;37106;-76
2021/03/25 01:54:18;;;;;;;15.93;10.70;;;2.80;53.50;;;;;;5074927;28;39227;-77
2021/03/25 01:57:04;;;;;;;14.80;9.83;;;2.70;53.60;;;;;;5060978;28;39776;-77
2021/03/25 02:00:06;;;;;;;16.10;10.57;;;2.70;53.70;;;;;;5068465;28;36766;-77
2021/03/25 02:02:55;;;;;;;15.80;10.37;;;2.70;53.90;;;;;;5083893;28;37878;-77
2021/03/25 02:05:35;;;;;;;14.40;10.20;;;2.70;53.90;;;;;;5075471;28;39048;-77
2021/03/25 02:08:11;;;;;;;17.10;11.33;;;2.70;53.90;;;;;;5073311;28;37746;-77
2021/03/25 02:10:49;;;;;;;15.80;10.03;;;2.70;54.10;;;;;;5082861;28;39030;-77
2021/03/25 02:13:29;;;;;;;18.10;11.10;;;2.70;54.20;;;;;;5086422;28;36552;-77
2021/03/25 02:16:03;;;;;;;14.10;10.47;;;2.70;54.20;;;;;;5088449;28;38312;-76
2021/03/25 02:18:44;;;;;;;18.27;11.13;;;2.70;54.40;;;;;;5073368;28;38487;-77
2021/03/25 02:21:42;;;;;;;18.20;10.47;;;2.70;54.40;;;;;;5069619;28;38013;-76
2021/03/25 02:24:47;;;;;;;14.97;10.13;;;2.70;54.40;;;;;;5075687;28;36496;-77
2021/03/25 02:27:52;;;;;;;14.33;10.10;;;2.60;54.30;;;;;;5079680;28;38415;-76
2021/03/25 02:30:24;;;;;;;17.67;10.40;;;2.60;54.30;;;;;;5083937;28;39096;-76
2021/03/25 02:33:06;;;;;;;15.57;10.00;;;2.60;54.50;;;;;;5082709;28;38320;-76
2021/03/25 02:35:44;;;;;;;14.53;10.40;;;2.60;54.40;;;;;;5062230;28;37512;-77
2021/03/25 02:38:17;;;;;;;14.03;9.77;;;2.50;54.30;;;;;;5091525;28;38445;-76
2021/03/25 02:40:53;;;;;;;16.67;10.10;;;2.60;54.40;;;;;;5072284;28;38944;-77
2021/03/25 02:43:26;;;;;;;15.23;10.17;;;2.60;54.30;;;;;;5069306;28;36870;-76
2021/03/25 02:45:57;;;;;;;19.00;11.00;;;2.50;54.20;;;;;;5080917;28;36768;-76
2021/03/25 02:48:30;;;;;;;16.20;10.97;;;2.50;54.40;;;;;;5080782;28;38493;-76
2021/03/25 02:51:02;;;;;;;13.87;10.10;;;2.50;54.50;;;;;;5072431;28;39870;-76
2021/03/25 02:53:35;;;;;;;15.27;10.23;;;2.40;54.50;;;;;;5082077;28;37397;-77
2021/03/25 02:56:14;;;;;;;18.40;10.50;;;2.40;54.60;;;;;;5074579;28;36269;-77
2021/03/25 02:58:46;;;;;;;14.67;10.43;;;2.40;54.60;;;;;;5085533;28;38602;-77
2021/03/25 03:01:16;;;;;;;14.50;10.57;;;2.40;54.60;;;;;;5077945;28;37742;-77
2021/03/25 03:03:49;;;;;;;13.90;10.03;;;2.30;54.80;;;;;;5073773;28;38130;-77
2021/03/25 03:06:56;;;;;;;16.90;11.03;;;2.40;54.60;;;;;;5077341;28;37980;-76
2021/03/25 03:09:29;;;;;;;15.13;10.93;;;2.30;54.50;;;;;;5067422;28;40614;-77
2021/03/25 03:12:01;;;;;;;14.27;9.70;;;2.30;54.70;;;;;;5083506;28;39058;-76
2021/03/25 03:14:37;;;;;;;14.53;10.83;;;2.30;54.70;;;;;;5072579;28;36971;-77
2021/03/25 03:17:08;;;;;;;18.03;11.00;;;2.30;54.60;;;;;;5061922;28;36710;-77
2021/03/25 03:19:52;;;;;;;14.67;9.70;;;2.30;54.60;;;;;;5078131;28;38360;-77
2021/03/25 03:22:19;;;;;;;13.20;9.53;;;2.30;54.40;;;;;;5063541;28;39357;-77
2021/03/25 03:25:09;;;;;;;14.43;9.77;;;2.30;54.50;;;;;;5084469;28;39021;-77
2021/03/25 03:27:43;;;;;;;16.00;11.20;;;2.20;54.20;;;;;;5082548;28;36706;-76
2021/03/25 03:30:15;;;;;;;14.50;10.33;;;2.20;54.30;;;;;;5080161;28;39970;-76
2021/03/25 03:32:56;;;;;;;14.70;9.80;;;2.10;54.30;;;;;;5074069;28;37799;-77
2021/03/25 03:35:32;;;;;;;14.73;9.53;;;2.10;54.30;;;;;;5075370;28;20556;-77
2021/03/25 03:38:03;;;;;;;14.70;10.60;;;2.10;54.40;;;;;;5076424;28;37223;-77
2021/03/25 03:40:35;;;;;;;15.93;10.63;;;2.00;54.50;;;;;;5076026;28;40037;-77
2021/03/25 03:43:08;;;;;;;17.07;10.37;;;2.00;54.60;;;;;;5063055;28;37856;-77
2021/03/25 03:45:44;;;;;;;16.80;11.17;;;2.00;54.70;;;;;;5072108;28;37682;-77
2021/03/25 03:48:25;;;;;;;14.73;10.07;;;2.00;54.70;;;;;;5070721;28;36615;-77
2021/03/25 03:50:59;;;;;;;16.33;10.27;;;1.90;54.90;;;;;;5073972;28;38353;-78
2021/03/25 03:53:29;;;;;;;15.80;10.57;;;1.90;54.80;;;;;;5069491;28;37911;-77
2021/03/25 03:56:08;;;;;;;13.50;9.23;;;1.90;54.70;;;;;;5072634;28;36853;-77
2021/03/25 03:58:42;;;;;;;15.13;10.40;;;2.00;55.00;;;;;;5057426;28;36190;-77
2021/03/25 04:01:16;;;;;;;17.90;10.30;;;1.90;54.80;;;;;;5074234;28;38566;-77
2021/03/25 04:03:47;;;;;;;16.90;11.30;;;1.90;55.00;;;;;;5078309;28;38536;-77
2021/03/25 04:06:47;;;;;;;17.10;10.87;;;1.90;55.00;;;;;;5077357;28;36887;-77
2021/03/25 04:09:34;;;;;;;18.87;10.90;;;1.90;55.20;;;;;;5074797;28;36297;-77
2021/03/25 04:12:24;;;;;;;16.30;12.13;;;1.90;55.00;;;;;;5083568;28;38701;-77
2021/03/25 04:14:55;;;;;;;19.30;11.57;;;1.90;55.20;;;;;;5080463;28;37784;-77
2021/03/25 04:17:31;;;;;;;15.67;11.30;;;1.90;55.50;;;;;;5090260;28;37240;-77
2021/03/25 04:20:10;;;;;;;14.50;10.80;;;1.80;55.30;;;;;;5079352;28;36151;-77
2021/03/25 04:23:00;;;;;;;18.00;11.30;;;1.80;55.40;;;;;;5031138;28;38997;-78
2021/03/25 04:25:29;;;;;;;20.37;11.67;;;1.90;55.40;;;;;;5033294;28;39435;-77
2021/03/25 04:28:03;;;;;;;15.50;11.40;;;1.90;55.30;;;;;;5043123;28;38099;-78
2021/03/25 04:30:34;;;;;;;15.43;10.50;;;1.80;55.40;;;;;;5051243;28;37138;-78
2021/03/25 04:33:01;;;;;;;18.63;11.20;;;1.90;55.50;;;;;;5070287;28;40267;-78
2021/03/25 04:35:28;;;;;;;15.70;10.27;;;1.90;55.30;;;;;;5053547;28;41620;-77
2021/03/25 04:37:58;;;;;;;17.40;11.97;;;1.90;55.20;;;;;;5064436;28;38617;-78
2021/03/25 04:40:30;;;;;;;21.43;11.13;;;1.90;55.70;;;;;;5073133;28;37131;-77
2021/03/25 04:42:57;;;;;;;18.87;11.60;;;1.80;55.20;;;;;;5055586;28;39774;-78
2021/03/25 04:45:28;;;;;;;18.10;11.57;;;1.80;55.30;;;;;;5064281;28;38003;-78
2021/03/25 04:47:59;;;;;;;17.40;10.70;;;1.80;55.40;;;;;;5080924;28;38233;-78
2021/03/25 04:50:30;;;;;;;21.20;11.97;;;1.70;55.40;;;;;;5046866;28;37236;-78
2021/03/25 04:53:03;;;;;;;20.70;12.10;;;1.70;55.60;;;;;;5052361;28;39459;-79
2021/03/25 04:55:34;;;;;;;16.37;11.70;;;1.70;55.70;;;;;;5068706;28;39042;-78
2021/03/25 04:58:05;;;;;;;16.47;11.30;;;1.70;55.40;;;;;;5070713;28;37964;-78
2021/03/25 05:00:36;;;;;;;19.33;11.60;;;1.70;55.70;;;;;;5063183;28;36610;-78
2021/03/25 05:03:05;;;;;;;14.80;11.60;;;1.60;55.60;;;;;;5067509;28;40669;-79
2021/03/25 05:05:34;;;;;;;18.83;11.07;;;1.60;55.50;;;;;;5056703;28;37822;-77
2021/03/25 05:08:06;;;;;;;17.50;10.80;;;1.60;55.50;;;;;;5071579;28;38380;-77
2021/03/25 05:10:39;;;;;;;20.43;11.33;;;1.50;55.60;;;;;;5042737;28;36306;-77
2021/03/25 05:13:20;;;;;;;18.17;10.80;;;1.50;55.60;;;;;;5061890;28;39742;-77
2021/03/25 05:15:50;;;;;;;15.33;10.60;;;1.50;55.60;;;;;;5059940;28;40224;-78
2021/03/25 05:18:23;;;;;;;16.07;10.63;;;1.50;55.60;;;;;;5074169;28;38727;-78
2021/03/25 05:20:58;;;;;;;17.10;11.70;;;1.60;55.70;;;;;;5087950;28;37014;-78
2021/03/25 05:23:30;;;;;;;17.07;10.30;;;1.60;55.70;;;;;;5052350;28;39644;-78
2021/03/25 05:26:05;;;;;;;16.20;10.63;;;1.60;55.70;;;;;;5070540;28;39217;-78
2021/03/25 05:28:41;;;;;;;19.20;11.40;;;1.60;55.90;;;;;;5071631;28;38620;-78
2021/03/25 05:31:12;;;;;;;15.10;10.13;;;1.70;56.00;;;;;;5062707;28;37499;-78
2021/03/25 05:33:40;;;;;;;15.30;11.47;;;1.80;55.90;;;;;;5078801;28;39880;-78
2021/03/25 05:36:10;;;;;;;17.73;11.03;;;1.80;55.70;;;;;;5090721;28;40094;-79
2021/03/25 05:38:38;;;;;;;14.83;10.40;;;1.90;55.70;;;;;;5074507;28;37750;-79
2021/03/25 05:41:12;;;;;;;16.57;10.03;;;2.00;55.60;;;;;;5086832;28;37570;-79
2021/03/25 05:44:06;;;;;;;17.50;10.90;;;2.00;55.40;;;;;;5085224;28;39748;-78
2021/03/25 05:46:43;;;;;;;15.40;11.23;;;2.00;55.40;;;;;;5049593;28;39029;-79
2021/03/25 05:49:23;;;;;;;14.80;10.47;;;2.20;55.40;;;;;;5096046;28;36542;-79
2021/03/25 05:52:10;;;;;;;13.17;10.43;;;2.30;55.50;;;;;;5081380;28;37816;-79
2021/03/25 05:54:56;;;;;;;19.67;10.50;;;2.50;54.90;;;;;;5062986;28;38491;-79
2021/03/25 05:57:33;;;;;;;18.17;10.50;;;2.60;54.40;;;;;;5076702;28;39753;-79
2021/03/25 06:00:06;;;;;;;17.27;10.53;;;2.80;54.40;;;;;;5061640;28;38257;-79
2021/03/25 06:02:44;;;;;;;14.20;9.80;;;3.00;54.20;;;;;;5072965;28;37837;-78
2021/03/25 06:05:13;;;;;;;13.83;9.73;;;3.20;53.50;;;;;;5064443;28;38516;-78
2021/03/25 06:08:09;;;;;;;16.53;9.60;;;3.50;53.50;;;;;;5069680;28;39984;-79
2021/03/25 06:10:48;;;;;;;12.20;9.30;;;3.70;52.80;;;;;;5055787;28;37023;-79
2021/03/25 06:13:25;;;;;;;13.13;8.83;;;4.00;51.80;;;;;;5060397;28;37201;-79
2021/03/25 06:16:09;;;;;;;15.03;10.00;;;4.20;50.90;;;;;;5055339;28;39742;-78
2021/03/25 06:19:09;;;;;;;16.37;9.87;;;4.40;50.10;;;;;;5071233;28;38958;-79
2021/03/25 06:21:56;;;;;;;20.70;10.70;;;4.60;49.60;;;;;;5063097;28;39088;-78
2021/03/25 06:24:56;;;;;;;21.43;10.53;;;4.80;49.20;;;;;;5058271;28;37362;-79
2021/03/25 06:27:36;;;;;;;22.53;10.10;;;5.00;48.60;;;;;;5049945;28;38493;-79
2021/03/25 06:30:08;;;;;;;15.93;9.47;;;5.20;48.30;;;;;;5076751;28;38903;-81
2021/03/25 06:32:49;;;;;;;13.10;9.30;;;5.40;47.80;;;;;;5100734;28;37458;-78
2021/03/25 06:35:20;;;;;;;19.00;10.43;;;5.70;47.70;;;;;;5102884;28;38133;-80
2021/03/25 06:37:55;;;;;;;18.47;11.10;;;6.20;49.10;;;;;;5086932;28;40106;-81
2021/03/25 06:40:27;;;;;;;16.90;10.20;;;7.90;47.50;;;;;;5088701;28;39576;-80
2021/03/25 06:43:01;;;;;;;15.90;11.20;;;10.00;41.90;;;;;;5086755;28;37898;-79
2021/03/25 06:45:32;;;;;;;14.97;10.50;;;12.20;37.30;;;;;;5095358;28;37524;-77
2021/03/25 06:48:05;;;;;;;19.43;11.87;;;13.80;33.30;;;;;;5107521;28;39709;-79
2021/03/25 06:50:38;;;;;;;22.67;12.33;;;15.30;31.30;;;;;;5068847;28;39039;-78
2021/03/25 06:53:22;;;;;;;16.40;10.67;;;16.80;29.90;;;;;;5105498;28;36652;-78
2021/03/25 06:55:51;;;;;;;16.30;12.27;;;18.00;28.00;;;;;;5090881;28;37510;-79
2021/03/25 06:58:26;;;;;;;17.77;11.53;;;19.10;26.40;;;;;;5083840;28;40962;-80
2021/03/25 07:00:59;;;;;;;18.83;12.90;;;19.80;25.20;;;;;;5098168;28;38842;-79
2021/03/25 07:03:29;;;;;;;14.10;11.43;;;19.90;25.00;;;;;;5098766;28;38170;-80
2021/03/25 07:06:01;;;;;;;16.50;14.70;;;20.00;24.70;;;;;;5094486;28;38019;-80
2021/03/25 07:08:31;;;;;;;16.13;12.30;;;20.20;24.80;;;;;;5098999;28;40749;-81
2021/03/25 07:11:03;;;;;;;13.90;10.30;;;20.60;24.00;;;;;;5096980;28;40375;-80
2021/03/25 07:13:36;;;;;;;15.47;11.80;;;21.10;23.50;;;;;;5075736;28;38009;-80
2021/03/25 07:16:07;;;;;;;17.47;13.67;;;21.40;23.00;;;;;;5076787;28;36273;-80
2021/03/25 07:18:41;;;;;;;17.87;11.67;;;21.00;23.00;;;;;;5076935;28;39681;-80
2021/03/25 07:21:35;;;;;;;12.20;10.70;;;20.30;23.50;;;;;;5090937;28;37827;-80
2021/03/25 07:24:08;;;;;;;12.00;10.80;;;20.20;23.50;;;;;;5092153;28;38318;-81
2021/03/25 07:26:39;;;;;;;12.60;11.00;;;20.10;23.50;;;;;;5067174;28;37654;-81
2021/03/25 07:29:23;;;;;;;17.67;10.70;;;20.50;23.50;;;;;;5107133;27;39984;-79
2021/03/25 07:32:12;;;;;;;14.43;12.50;;;21.30;23.40;;;;;;5089945;28;39588;-80
2021/03/25 07:34:43;;;;;;;11.30;9.83;;;22.20;22.50;;;;;;5088681;28;37803;-79
2021/03/25 07:37:12;;;;;;;25.73;10.43;;;23.00;22.10;;;;;;5083413;28;37751;-81
2021/03/25 07:39:47;;;;;;;11.33;9.77;;;23.80;21.40;;;;;;5115813;28;38146;-79
2021/03/25 07:42:26;;;;;;;19.10;10.40;;;24.80;21.00;;;;;;5086014;28;39502;-80
2021/03/25 07:44:54;;;;;;;11.27;10.13;;;25.50;19.90;;;;;;5089045;28;38739;-80
2021/03/25 07:47:30;;;;;;;20.00;10.60;;;26.00;19.60;;;;;;5093548;28;36947;-80
2021/03/25 07:50:22;;;;;;;10.90;9.80;;;26.60;18.80;;;;;;5056632;28;39748;-80
2021/03/25 07:52:50;;;;;;;17.80;9.90;;;26.90;18.70;;;;;;5078826;28;39124;-80
2021/03/25 07:55:29;;;;;;;11.90;9.07;;;27.00;18.70;;;;;;5072040;28;36908;-80
2021/03/25 07:57:58;;;;;;;11.70;10.57;;;27.20;18.20;;;;;;5074040;28;35846;-80
2021/03/25 08:00:31;;;;;;;26.13;11.53;;;27.50;17.80;;;;;;5092113;28;39788;-80
2021/03/25 08:03:16;;;;;;;12.00;10.80;;;27.40;17.50;;;;;;5093866;28;40218;-81
2021/03/25 08:05:44;;;;;;;13.50;11.73;;;27.30;17.50;;;;;;5086196;28;37789;-80
2021/03/25 08:08:25;;;;;;;12.80;11.60;;;27.00;18.00;;;;;;5091770;28;37302;-80
2021/03/25 08:11:08;;;;;;;14.87;11.77;;;27.10;17.60;;;;;;5055768;28;39251;-81
2021/03/25 08:13:36;;;;;;;11.97;10.87;;;27.80;17.30;;;;;;5086354;28;39192;-81
2021/03/25 08:16:07;;;;;;;11.37;10.07;;;28.30;16.90;;;;;;5092472;28;38314;-80
2021/03/25 08:19:06;;;;;;;14.33;10.50;;;28.70;16.50;;;;;;5071222;28;36081;-81
2021/03/25 08:21:45;;;;;;;12.70;11.50;;;29.70;16.20;;;;;;5089859;28;40618;-81
2021/03/25 08:24:39;;;;;;;16.47;12.60;;;30.30;15.40;;;;;;5092064;28;38644;-81
2021/03/25 08:27:26;;;;;;;18.50;12.27;;;30.80;15.10;;;;;;5083851;28;39018;-79
2021/03/25 08:30:03;;;;;;;16.30;11.17;;;31.20;14.60;;;;;;5090409;28;37568;-80
2021/03/25 08:32:43;;;;;;;11.00;9.90;;;31.50;14.20;;;;;;5083849;28;39621;-80
2021/03/25 08:35:21;;;;;;;11.40;10.23;;;31.40;14.30;;;;;;5075509;28;37909;-80
2021/03/25 08:38:13;;;;;;;10.27;9.40;;;31.30;14.00;;;;;;5080241;28;38290;-79
2021/03/25 08:40:49;;;;;;;14.30;10.00;;;31.50;14.00;;;;;;5071198;28;37127;-80
2021/03/25 08:43:23;;;;;;;11.00;10.00;;;31.20;14.10;;;;;;5055662;28;38662;-80
2021/03/25 08:45:56;;;;;;;18.07;11.17;;;30.90;13.70;;;;;;5087872;28;40017;-79
2021/03/25 08:48:29;;;;;;;11.20;9.80;;;30.40;14.20;;;;;;5071855;28;36697;-80
2021/03/25 08:51:04;;;;;;;11.83;10.20;;;30.70;14.30;;;;;;5074264;28;36575;-80
2021/03/25 08:53:40;;;;;;;11.20;10.23;;;31.10;14.10;;;;;;5078681;28;40097;-80
2021/03/25 08:56:29;;;;;;;13.70;10.53;;;31.30;13.90;;;;;;5088736;28;39217;-80
2021/03/25 08:59:00;;;;;;;16.07;10.77;;;31.80;14.20;;;;;;5090642;28;38083;-80
2021/03/25 09:01:32;;;;;;;11.00;9.80;;;32.40;13.10;;;;;;5109984;27;36053;-81
2021/03/25 09:04:04;;;;;;;10.60;9.60;;;33.00;13.10;;;;;;5090563;28;40535;-80
2021/03/25 09:06:36;;;;;;;11.40;10.20;;;33.70;12.50;;;;;;5087957;28;39034;-80
2021/03/25 09:09:24;;;;;;;15.70;10.17;;;34.20;12.50;;;;;;5090224;28;38109;-80
2021/03/25 09:11:51;;;;;;;12.13;10.50;;;34.50;12.10;;;;;;5091582;28;38311;-80
2021/03/25 09:14:22;;;;;;;14.73;10.13;;;34.60;12.10;;;;;;5095080;28;39704;-81
2021/03/25 09:16:52;;;;;;;16.93;10.37;;;34.40;12.00;;;;;;5052170;28;39378;-80
2021/03/25 09:19:24;;;;;;;11.47;10.30;;;34.10;11.90;;;;;;5084001;28;38024;-82
2021/03/25 09:21:57;;;;;;;13.30;11.23;;;34.20;11.90;;;;;;5088880;28;37659;-81
2021/03/25 09:24:25;;;;;;;15.87;10.70;;;34.30;12.00;;;;;;5088189;28;39989;-81
2021/03/25 09:27:13;;;;;;;15.43;10.40;;;34.50;11.70;;;;;;5090144;28;40114;-81
2021/03/25 09:30:27;;;;;;;11.53;10.53;;;34.80;11.40;;;;;;5090305;28;39027;-81
2021/03/25 09:33:15;;;;;;;11.40;10.30;;;34.40;11.10;;;;;;5022039;28;36433;-80
2021/03/25 09:35:46;;;;;;;16.50;10.40;;;34.60;11.70;;;;;;5102533;28;37467;-82
2021/03/25 09:38:29;;;;;;;17.87;12.00;;;35.20;11.50;;;;;;5095546;28;39490;-81
2021/03/25 09:40:57;;;;;;;24.13;13.20;;;35.90;11.00;;;;;;5095549;28;38326;-82
2021/03/25 09:43:42;;;;;;;15.07;10.57;;;36.40;10.70;;;;;;5105849;28;37007;-79
2021/03/25 09:46:35;;;;;;;21.63;13.23;;;36.70;10.60;;;;;;5070122;28;39210;-82
2021/03/25 09:49:28;;;;;;;16.60;10.70;;;36.60;10.40;;;;;;5086639;28;40176;-82
2021/03/25 09:52:25;;;;;;;14.07;11.17;;;36.70;10.30;;;;;;5109131;28;36717;-81
2021/03/25 09:55:20;;;;;;;14.40;10.70;;;36.40;10.70;;;;;;5090106;28;37153;-81
2021/03/25 09:57:48;;;;;;;10.83;9.30;;;36.50;10.40;;;;;;5102022;28;38046;-81
2021/03/25 10:00:51;;;;;;;19.70;10.33;;;36.10;10.70;;;;;;5092617;28;39490;-81
2021/03/25 10:03:38;;;;;;;19.53;8.67;;;35.70;10.70;;;;;;5087482;28;38958;-80
2021/03/25 10:06:45;;;;;;;11.90;8.17;;;35.70;10.70;;;;;;5092318;28;37404;-82
2021/03/25 10:09:13;;;;;;;13.67;8.10;;;35.70;10.70;;;;;;5086241;28;39718;-81
2021/03/25 10:11:50;;;;;;;11.30;8.07;;;35.70;10.90;;;;;;5078270;28;39356;-80
2021/03/25 10:14:54;;;;;;;13.83;8.23;;;34.90;10.70;;;;;;5083267;28;38247;-80
2021/03/25 10:17:44;;;;;;;17.67;7.37;;;34.90;10.90;;;;;;5109487;28;36077;-80
2021/03/25 10:20:57;;;;;;;15.90;7.90;;;34.70;11.30;;;;;;5092566;28;39719;-79
2021/03/25 10:23:26;;;;;;;14.97;7.43;;;34.70;11.30;;;;;;5077965;28;37443;-88
2021/03/25 10:25:56;;;;;;;8.77;4.93;;;34.40;11.00;;;;;;5099652;28;38845;-89
2021/03/25 10:28:27;;;;;;;13.13;5.47;;;34.00;10.70;;;;;;5082779;28;36171;-87
2021/03/25 10:31:00;;;;;;;12.63;4.27;;;33.70;11.60;;;;;;5086353;28;40014;-88
2021/03/25 10:33:29;;;;;;;8.57;5.00;;;33.70;11.10;;;;;;5093057;28;39989;-80
2021/03/25 10:36:01;;;;;;;4.87;4.23;;;33.70;10.60;;;;;;5087224;28;38472;-81
2021/03/25 10:38:31;;;;;;;12.77;4.40;;;33.50;10.40;;;;;;5092164;28;37871;-81
2021/03/25 10:41:05;;;;;;;8.40;4.10;;;33.00;10.50;;;;;;5090921;28;40767;-82
2021/03/25 10:43:34;;;;;;;7.23;4.30;;;32.40;11.00;;;;;;5109211;28;38709;-82
2021/03/25 10:46:04;;;;;;;12.53;4.20;;;32.10;11.30;;;;;;5077317;28;38118;-81
2021/03/25 10:48:40;;;;;;;8.13;4.73;;;32.20;11.70;;;;;;5093566;28;37299;-81
2021/03/25 10:51:15;;;;;;;8.83;4.30;;;32.20;11.40;;;;;;5096437;28;40243;-82
2021/03/25 10:53:46;;;;;;;8.77;4.70;;;32.10;10.80;;;;;;5092836;28;39662;-81
2021/03/25 10:56:17;;;;;;;8.50;4.37;;;31.10;11.50;;;;;;5082120;28;37377;-82
2021/03/25 10:58:53;;;;;;;9.50;4.40;;;30.60;11.60;;;;;;5091322;28;37576;-80
2021/03/25 11:01:23;;;;;;;11.07;4.27;;;30.50;12.40;;;;;;5078767;28;38705;-79
2021/03/25 11:03:51;;;;;;;6.37;3.57;;;30.40;12.00;;;;;;5078437;28;38301;-79
2021/03/25 11:06:25;;;;;;;10.03;4.33;;;29.40;12.60;;;;;;5070360;28;37187;-79
2021/03/25 11:09:03;;;;;;;6.53;3.87;;;29.00;12.70;;;;;;5094897;28;37089;-80
2021/03/25 11:11:36;;;;;;;5.90;4.03;;;28.40;13.30;;;;;;5110302;28;38905;-80
2021/03/25 11:14:05;;;;;;;10.33;3.97;;;28.00;13.80;;;;;;5092440;28;39247;-82
2021/03/25 11:16:33;;;;;;;4.87;3.60;;;27.50;14.10;;;;;;5097886;28;37909;-81
2021/03/25 11:19:06;;;;;;;4.37;3.80;;;27.40;13.70;;;;;;5094019;28;37383;-80
2021/03/25 11:21:37;;;;;;;7.17;4.33;;;27.20;14.60;;;;;;5112484;28;39033;-81
2021/03/25 11:24:24;;;;;;;5.13;3.83;;;27.10;14.30;;;;;;5096714;28;40123;-81
2021/03/25 11:26:58;;;;;;;11.33;4.37;;;27.00;14.20;;;;;;5088618;28;36699;-81
2021/03/25 11:29:27;;;;;;;13.40;4.67;;;26.30;14.40;;;;;;5089042;28;37144;-80
2021/03/25 11:32:11;;;;;;;8.70;4.70;;;26.10;15.00;;;;;;5094108;28;39710;-81
2021/03/25 11:34:41;;;;;;;5.00;3.90;;;25.70;15.50;;;;;;5072895;28;38711;-84
2021/03/25 11:37:26;;;;;;;6.20;4.33;;;25.20;15.70;;;;;;5069285;28;36270;-84
2021/03/25 11:40:02;;;;;;;7.73;4.30;;;25.00;15.80;;;;;;5089551;28;37102;-83
2021/03/25 11:42:31;;;;;;;9.80;4.50;;;24.60;16.60;;;;;;5085340;28;39720;-83
2021/03/25 11:44:58;;;;;;;14.13;5.00;;;24.30;16.60;;;;;;5092165;28;38453;-84
2021/03/25 11:47:44;;;;;;;7.00;4.87;;;24.00;16.40;;;;;;5113368;27;36918;-83
2021/03/25 11:50:30;;;;;;;10.07;4.47;;;23.80;16.70;;;;;;5096889;28;37809;-84
2021/03/25 11:53:00;;;;;;;7.17;4.40;;;23.40;16.80;;;;;;5097830;28;40819;-84
2021/03/25 11:55:33;;;;;;;10.47;4.70;;;23.00;17.50;;;;;;5090825;28;40080;-83
2021/03/25 11:58:24;;;;;;;10.20;5.50;;;22.80;18.00;;;;;;5077601;28;37144;-83
2021/03/25 12:00:57;;;;;;;10.73;4.50;;;22.60;17.90;;;;;;5090811;28;37421;-82
2021/03/25 12:03:32;;;;;;;8.83;4.63;;;22.40;17.50;;;;;;5089000;28;40294;-83
2021/03/25 12:05:59;;;;;;;6.17;3.37;;;22.20;17.90;;;;;;5086661;28;39620;-83
2021/03/25 12:08:33;;;;;;;5.97;4.00;;;22.00;17.80;;;;;;5088468;28;38299;-82
2021/03/25 12:11:04;;;;;;;60.63;8.40;;;21.90;18.30;;;;;;5086039;28;36002;-84
2021/03/25 12:13:34;;;;;;;11.50;3.93;;;21.60;18.10;;;;;;5096810;28;39439;-82
2021/03/25 12:16:01;;;;;;;7.37;3.47;;;21.60;18.90;;;;;;5095464;28;39306;-82
2021/03/25 12:18:49;;;;;;;7.40;3.17;;;21.80;18.80;;;;;;5097354;28;38260;-82
2021/03/25 12:21:16;;;;;;;8.07;3.70;;;21.80;18.60;;;;;;5097362;28;36962;-82
2021/03/25 12:23:44;;;;;;;7.20;3.67;;;21.80;18.40;;;;;;5103056;28;38850;-82
2021/03/25 12:26:13;;;;;;;4.50;3.27;;;21.80;18.40;;;;;;5050724;28;38670;-84
2021/03/25 12:28:41;;;;;;;4.40;3.00;;;21.80;18.40;;;;;;5102498;28;38331;-83
2021/03/25 12:31:08;;;;;;;9.83;3.37;;;21.80;18.30;;;;;;5101695;28;38263;-83
2021/03/25 12:33:38;;;;;;;5.27;3.27;;;21.60;18.20;;;;;;5093582;28;40037;-84
2021/03/25 12:36:09;;;;;;;8.80;3.93;;;21.50;18.60;;;;;;5108608;28;39242;-82
2021/03/25 12:38:37;;;;;;;6.87;3.40;;;21.50;18.80;;;;;;5103315;28;38809;-83
2021/03/25 12:41:08;;;;;;;6.30;3.47;;;21.50;18.90;;;;;;5100566;28;37888;-83
2021/03/25 12:43:37;;;;;;;5.93;3.20;;;21.40;19.20;;;;;;5101938;28;40385;-82
2021/03/25 12:46:08;;;;;;;6.93;3.53;;;21.60;19.50;;;;;;5097343;28;39127;-83
2021/03/25 12:48:36;;;;;;;4.57;2.70;;;21.60;18.50;;;;;;5101574;28;38170;-83
2021/03/25 12:51:06;;;;;;;7.70;4.37;;;21.50;18.80;;;;;;5125047;27;35896;-82
2021/03/25 12:53:43;;;;;;;9.80;5.47;;;21.30;19.30;;;;;;5095388;28;39789;-82
2021/03/25 12:56:15;;;;;;;8.60;7.70;;;21.40;19.30;;;;;;5098731;28;37470;-83
2021/03/25 12:58:44;;;;;;;14.57;11.00;;;21.40;19.10;;;;;;5111864;28;39559;-83
2021/03/25 13:01:13;;;;;;;8.30;4.50;;;21.40;19.00;;;;;;5126912;27;36559;-82
2021/03/25 13:03:43;;;;;;;5.00;3.17;;;21.30;19.00;;;;;;5105501;28;40788;-82
2021/03/25 13:06:24;;;;;;;15.17;11.30;;;21.10;19.50;;;;;;5082626;28;38799;-83
2021/03/25 13:08:52;;;;;;;7.87;3.47;;;21.00;19.60;;;;;;5088539;28;38465;-83
2021/03/25 13:11:23;;;;;;;5.87;3.40;;;20.90;19.50;;;;;;5048595;28;37613;-83
2021/03/25 13:13:52;;;;;;;7.40;4.03;;;20.60;19.70;;;;;;5098136;28;40244;-83
2021/03/25 13:16:19;;;;;;;13.17;3.60;;;20.50;19.80;;;;;;5074467;28;37763;-83
2021/03/25 13:18:47;;;;;;;13.87;3.80;;;20.40;19.90;;;;;;5115147;28;37306;-83